createdAt,value
2022-09-12T00:01:15.732Z,12.35
2022-09-12T00:03:44.456Z,12.36
2022-09-12T00:06:15.223Z,12.37
2022-09-12T00:08:45.684Z,12.37
2022-09-12T00:11:14.299Z,12.38
2022-09-12T00:13:43.047Z,12.38
2022-09-12T00:16:16.182Z,12.39
2022-09-12T00:18:45.575Z,12.39
2022-09-12T00:21:14.162Z,12.40
2022-09-12T00:23:42.233Z,12.42
2022-09-12T00:26:10.132Z,12.43
2022-09-12T00:28:38.787Z,12.44
2022-09-12T00:31:17.332Z,12.46
2022-09-12T00:33:45.698Z,12.47
2022-09-12T00:36:15.599Z,12.48
2022-09-12T00:38:44.499Z,12.47
2022-09-12T00:41:17.850Z,12.46
2022-09-12T00:43:48.108Z,12.45
2022-09-12T00:46:20.789Z,12.42
2022-09-12T00:48:58.976Z,12.39
2022-09-12T00:51:28.402Z,12.37
2022-09-12T00:53:57.195Z,12.33
2022-09-12T00:56:26.184Z,12.31
2022-09-12T00:59:01.151Z,12.29
2022-09-12T01:01:32.387Z,12.27
2022-09-12T01:04:01.869Z,12.26
2022-09-12T01:06:33.218Z,12.26
2022-09-12T01:09:04.391Z,12.26
2022-09-12T01:11:34.584Z,12.27
2022-09-12T01:14:02.656Z,12.29
2022-09-12T01:16:31.423Z,12.31
2022-09-12T01:19:15.188Z,12.32
2022-09-12T01:21:54.484Z,12.33
2022-09-12T01:24:48.193Z,12.36
2022-09-12T01:27:16.880Z,12.38
2022-09-12T01:30:03.284Z,12.40
2022-09-12T01:32:46.408Z,12.42
2022-09-12T01:35:21.655Z,12.44
2022-09-12T01:38:11.019Z,12.46
2022-09-12T01:40:49.163Z,12.48
2022-09-12T01:43:25.289Z,12.50
2022-09-12T01:46:11.997Z,12.51
2022-09-12T01:48:44.844Z,12.53
2022-09-12T01:51:33.098Z,12.54
2022-09-12T01:54:10.209Z,12.57
2022-09-12T01:56:40.229Z,12.60
2022-09-12T01:59:15.469Z,12.62
2022-09-12T02:01:50.569Z,12.66
2022-09-12T02:04:21.078Z,12.69
2022-09-12T02:06:59.225Z,12.71
2022-09-12T02:09:35.815Z,12.76
2022-09-12T02:12:06.138Z,12.81
2022-09-12T02:14:38.279Z,12.87
2022-09-12T02:17:12.113Z,12.94
2022-09-12T02:19:58.327Z,13.00
2022-09-12T02:22:27.996Z,13.09
2022-09-12T02:24:58.917Z,13.17
2022-09-12T02:27:32.611Z,13.23
2022-09-12T02:30:00.485Z,13.30
2022-09-12T02:32:30.806Z,13.36
2022-09-12T02:35:08.680Z,13.41
2022-09-12T02:37:45.440Z,13.47
2022-09-12T02:40:14.157Z,13.51
2022-09-12T02:42:42.466Z,13.55
2022-09-12T02:45:11.904Z,13.58
2022-09-12T02:47:46.328Z,13.62
2022-09-12T02:50:14.448Z,13.66
2022-09-12T02:52:42.981Z,13.68
2022-09-12T02:55:11.873Z,13.70
2022-09-12T02:57:39.672Z,13.70
2022-09-12T03:00:08.201Z,13.70
2022-09-12T03:02:35.955Z,13.70
2022-09-12T03:05:03.663Z,13.71
2022-09-12T03:07:41.138Z,13.72
2022-09-12T03:10:09.004Z,13.71
2022-09-12T03:12:39.944Z,13.70
2022-09-12T03:15:07.916Z,13.68
2022-09-12T03:17:41.927Z,13.68
2022-09-12T03:20:22.084Z,13.65
2022-09-12T03:22:58.550Z,13.64
2022-09-12T03:25:32.461Z,13.62
2022-09-12T03:28:07.537Z,13.59
2022-09-12T03:30:40.789Z,13.58
2022-09-12T03:33:12.346Z,13.57
2022-09-12T03:35:40.401Z,13.57
2022-09-12T03:38:08.588Z,13.58
2022-09-12T03:40:37.177Z,13.57
2022-09-12T03:43:06.269Z,13.55
2022-09-12T03:45:34.860Z,13.54
2022-09-12T03:48:03.538Z,13.53
2022-09-12T03:50:31.408Z,13.51
2022-09-12T03:53:00.011Z,13.48
2022-09-12T03:55:27.959Z,13.45
2022-09-12T03:57:55.932Z,13.42
2022-09-12T04:00:24.086Z,13.39
2022-09-12T04:02:56.332Z,13.35
2022-09-12T04:05:25.548Z,13.33
2022-09-12T04:07:53.611Z,13.33
2022-09-12T04:10:22.696Z,13.31
2022-09-12T04:12:52.144Z,13.27
2022-09-12T04:15:20.113Z,13.27
2022-09-12T04:17:47.981Z,13.26
2022-09-12T04:20:15.813Z,13.23
2022-09-12T04:22:43.844Z,13.20
2022-09-12T04:25:11.890Z,13.18
2022-09-12T04:27:39.862Z,13.17
2022-09-12T04:30:08.976Z,13.17
2022-09-12T04:32:36.843Z,13.16
2022-09-12T04:35:05.085Z,13.12
2022-09-12T04:37:33.184Z,13.08
2022-09-12T04:40:01.170Z,13.05
2022-09-12T04:42:29.826Z,13.03
2022-09-12T04:44:57.852Z,13.01
2022-09-12T04:47:25.771Z,12.99
2022-09-12T04:49:54.077Z,12.99
2022-09-12T04:52:22.014Z,12.99
2022-09-12T04:54:49.832Z,12.99
2022-09-12T04:57:18.055Z,12.97
2022-09-12T04:59:45.796Z,12.92
2022-09-12T05:02:13.682Z,12.93
2022-09-12T05:04:41.656Z,12.94
2022-09-12T05:07:09.728Z,12.98
2022-09-12T05:09:37.666Z,13.05
2022-09-12T05:12:06.071Z,13.14
2022-09-12T05:14:34.358Z,13.48
2022-09-12T05:17:02.785Z,14.33
2022-09-12T05:19:31.080Z,14.66
2022-09-12T05:21:59.303Z,14.57
2022-09-12T05:24:27.311Z,14.39
2022-09-12T05:26:55.225Z,14.22
2022-09-12T05:29:23.078Z,14.18
2022-09-12T05:31:53.013Z,14.75
2022-09-12T05:34:21.132Z,15.17
2022-09-12T05:36:49.361Z,15.21
2022-09-12T05:39:18.773Z,15.16
2022-09-12T05:41:47.456Z,15.04
2022-09-12T05:44:15.436Z,14.89
2022-09-12T05:46:45.229Z,14.76
2022-09-12T05:49:14.622Z,14.75
2022-09-12T05:51:44.344Z,14.84
2022-09-12T05:54:13.443Z,15.16
2022-09-12T05:56:42.377Z,15.67
2022-09-12T05:59:15.118Z,16.15
2022-09-12T06:01:43.172Z,16.57
2022-09-12T06:04:11.366Z,16.99
2022-09-12T06:06:41.806Z,17.30
2022-09-12T06:09:10.100Z,17.46
2022-09-12T06:11:40.963Z,17.57
2022-09-12T06:14:10.205Z,17.78
2022-09-12T06:16:39.134Z,18.55
2022-09-12T06:19:08.425Z,19.75
2022-09-12T06:21:36.464Z,21.44
2022-09-12T06:24:04.657Z,23.17
2022-09-12T06:26:33.433Z,24.48
2022-09-12T06:29:03.153Z,25.95
2022-09-12T06:31:33.233Z,26.60
2022-09-12T06:34:02.323Z,25.78
2022-09-12T06:36:31.567Z,24.61
2022-09-12T06:39:01.268Z,24.45
2022-09-12T06:41:29.895Z,24.35
2022-09-12T06:43:58.640Z,24.17
2022-09-12T06:46:27.237Z,23.95
2022-09-12T06:48:59.808Z,25.27
2022-09-12T06:51:28.843Z,27.39
2022-09-12T06:53:57.274Z,29.38
2022-09-12T06:56:26.680Z,30.66
2022-09-12T06:58:58.986Z,30.79
2022-09-12T07:01:28.813Z,31.70
2022-09-12T07:03:58.930Z,32.68
2022-09-12T07:06:32.483Z,33.93
2022-09-12T07:09:01.475Z,34.84
2022-09-12T07:11:34.133Z,35.63
2022-09-12T07:14:03.225Z,35.99
2022-09-12T07:16:32.943Z,36.53
2022-09-12T07:19:01.891Z,36.54
2022-09-12T07:21:30.098Z,36.84
2022-09-12T07:23:58.841Z,37.72
2022-09-12T07:26:27.810Z,37.78
2022-09-12T07:29:12.888Z,37.53
2022-09-12T07:31:45.460Z,38.33
2022-09-12T07:34:14.143Z,38.97
2022-09-12T07:36:42.013Z,39.39
2022-09-12T07:39:09.775Z,39.83
2022-09-12T07:41:37.648Z,40.51
2022-09-12T07:44:07.243Z,41.25
2022-09-12T07:46:35.978Z,41.80
2022-09-12T07:49:03.779Z,41.73
2022-09-12T07:51:32.083Z,41.16
2022-09-12T07:53:59.949Z,40.75
2022-09-12T07:56:31.192Z,40.54
2022-09-12T07:59:01.112Z,39.37
2022-09-12T08:01:30.042Z,37.64
2022-09-12T08:03:59.305Z,36.18
2022-09-12T08:06:28.098Z,34.78
2022-09-12T08:08:57.659Z,33.32
2022-09-12T08:11:28.133Z,31.82
2022-09-12T08:13:57.750Z,30.90
2022-09-12T08:16:27.142Z,30.02
2022-09-12T08:18:55.517Z,29.44
2022-09-12T08:21:24.620Z,28.90
2022-09-12T08:23:56.429Z,28.16
2022-09-12T08:26:25.024Z,27.16
2022-09-12T08:28:53.852Z,26.40
2022-09-12T08:31:23.075Z,25.89
2022-09-12T08:33:51.942Z,25.63
2022-09-12T08:36:21.576Z,25.32
2022-09-12T08:38:59.302Z,25.01
2022-09-12T08:41:35.117Z,24.84
2022-09-12T08:44:21.770Z,24.63
2022-09-12T08:47:11.231Z,24.43
2022-09-12T08:49:48.454Z,24.29
2022-09-12T08:52:21.503Z,24.00
2022-09-12T08:54:50.749Z,23.98
2022-09-12T08:57:19.338Z,24.07
2022-09-12T08:59:48.537Z,24.12
2022-09-12T09:02:27.201Z,24.06
2022-09-12T09:05:07.374Z,24.08
2022-09-12T09:07:53.375Z,24.05
2022-09-12T09:10:33.369Z,24.11
2022-09-12T09:13:12.132Z,24.14
2022-09-12T09:16:02.112Z,24.13
2022-09-12T09:18:33.108Z,24.06
2022-09-12T09:21:16.745Z,24.03
2022-09-12T09:23:46.775Z,23.80
2022-09-12T09:26:29.783Z,23.32
2022-09-12T09:29:00.070Z,22.96
2022-09-12T09:31:31.104Z,22.81
2022-09-12T09:34:00.173Z,22.68
2022-09-12T09:36:40.200Z,22.59
2022-09-12T09:39:13.905Z,22.66
2022-09-12T09:42:07.310Z,22.81
2022-09-12T09:44:35.347Z,22.88
2022-09-12T09:47:03.205Z,22.98
2022-09-12T09:49:35.271Z,22.97
2022-09-12T09:52:06.190Z,22.95
2022-09-12T09:54:34.189Z,22.91
2022-09-12T09:57:02.088Z,22.78
2022-09-12T09:59:31.995Z,22.77
2022-09-12T10:02:04.031Z,22.88
2022-09-12T10:04:41.086Z,22.97
2022-09-12T10:07:18.952Z,22.87
2022-09-12T10:10:07.177Z,22.68
2022-09-12T10:12:35.330Z,22.42
2022-09-12T10:15:16.151Z,22.38
2022-09-12T10:17:44.743Z,22.38
2022-09-12T10:20:32.271Z,22.41
2022-09-12T10:23:01.315Z,22.45
2022-09-12T10:25:29.191Z,22.43
2022-09-12T10:28:01.045Z,22.48
2022-09-12T10:30:29.213Z,22.42
2022-09-12T10:33:05.071Z,22.35
2022-09-12T10:35:43.894Z,22.37
2022-09-12T10:38:34.914Z,22.25
2022-09-12T10:41:07.792Z,22.18
2022-09-12T10:43:37.508Z,22.17
2022-09-12T10:46:12.225Z,22.22
2022-09-12T10:48:40.375Z,22.38
2022-09-12T10:51:15.535Z,22.41
2022-09-12T10:53:45.735Z,22.39
2022-09-12T10:56:13.730Z,22.28
2022-09-12T10:58:41.597Z,22.21
2022-09-12T11:01:42.071Z,22.14
2022-09-12T11:04:25.151Z,21.99
2022-09-12T11:07:06.945Z,22.04
2022-09-12T11:09:45.461Z,22.14
2022-09-12T11:12:13.542Z,22.26
2022-09-12T11:14:47.238Z,22.34
2022-09-12T11:17:17.258Z,22.29
2022-09-12T11:19:51.266Z,22.21
2022-09-12T11:22:34.155Z,22.21
2022-09-12T11:25:12.913Z,22.34
2022-09-12T11:28:04.742Z,22.40
2022-09-12T11:30:38.080Z,22.48
2022-09-12T11:33:29.663Z,22.65
2022-09-12T11:35:57.934Z,22.83
2022-09-12T11:38:25.659Z,22.96
2022-09-12T11:40:57.050Z,23.06
2022-09-12T11:43:43.344Z,23.10
2022-09-12T11:46:11.294Z,23.05
2022-09-12T11:48:42.974Z,23.01
2022-09-12T11:51:23.976Z,23.01
2022-09-12T11:53:59.904Z,23.03
2022-09-12T11:56:27.872Z,22.91
2022-09-12T11:59:03.164Z,22.80
2022-09-12T12:01:48.203Z,22.56
2022-09-12T12:04:18.207Z,22.24
2022-09-12T12:06:52.693Z,21.97
2022-09-12T12:09:21.225Z,21.83
2022-09-12T12:11:53.170Z,21.80
2022-09-12T12:14:24.011Z,21.91
2022-09-12T12:16:52.291Z,21.97
2022-09-12T12:19:32.953Z,22.11
2022-09-12T12:22:06.884Z,22.25
2022-09-12T12:24:34.833Z,22.37
2022-09-12T12:27:23.176Z,22.48
2022-09-12T12:29:51.557Z,22.50
2022-09-12T12:32:20.958Z,22.62
2022-09-12T12:34:48.931Z,22.60
2022-09-12T12:37:21.085Z,22.48
2022-09-12T12:39:52.090Z,22.28
2022-09-12T12:42:46.536Z,22.03
2022-09-12T12:45:17.983Z,21.83
2022-09-12T12:47:47.759Z,21.78
2022-09-12T12:50:21.700Z,21.79
2022-09-12T12:52:59.033Z,21.85
2022-09-12T12:55:29.532Z,21.90
2022-09-12T12:57:58.049Z,21.70
2022-09-12T13:00:29.987Z,21.68
2022-09-12T13:03:04.413Z,21.74
2022-09-12T13:05:42.950Z,21.84
2022-09-12T13:08:26.662Z,22.05
2022-09-12T13:10:58.106Z,22.20
2022-09-12T13:13:29.053Z,22.23
2022-09-12T13:15:56.957Z,22.09
2022-09-12T13:18:27.939Z,21.95
2022-09-12T13:21:01.359Z,21.88
2022-09-12T13:23:30.615Z,21.86
2022-09-12T13:26:00.689Z,21.82
2022-09-12T13:28:30.307Z,21.86
2022-09-12T13:31:01.368Z,21.91
2022-09-12T13:33:36.342Z,21.97
2022-09-12T13:36:23.065Z,22.02
2022-09-12T13:39:09.063Z,22.10
2022-09-12T13:41:45.919Z,22.24
2022-09-12T13:44:16.613Z,22.23
2022-09-12T13:46:45.024Z,22.20
2022-09-12T13:49:22.833Z,22.17
2022-09-12T13:52:14.986Z,22.06
2022-09-12T13:54:44.862Z,21.86
2022-09-12T13:57:48.146Z,21.66
2022-09-12T14:00:19.865Z,21.51
2022-09-12T14:02:48.652Z,21.41
2022-09-12T14:05:22.280Z,21.33
2022-09-12T14:07:58.426Z,21.34
2022-09-12T14:10:33.334Z,21.39
2022-09-12T14:13:03.148Z,21.40
2022-09-12T14:15:32.659Z,21.37
2022-09-12T14:18:02.079Z,21.37
2022-09-12T14:20:32.651Z,21.38
2022-09-12T14:23:02.908Z,21.32
2022-09-12T14:25:37.350Z,21.29
2022-09-12T14:28:06.215Z,21.18
2022-09-12T14:30:37.448Z,21.01
2022-09-12T14:33:05.552Z,20.87
2022-09-12T14:35:33.615Z,20.70
2022-09-12T14:38:16.731Z,20.58
2022-09-12T14:40:46.236Z,20.36
2022-09-12T14:43:20.245Z,20.28
2022-09-12T14:46:06.595Z,20.21
2022-09-12T14:48:36.588Z,20.14
2022-09-12T14:51:05.411Z,20.00
2022-09-12T14:53:34.809Z,19.94
2022-09-12T14:56:06.317Z,19.87
2022-09-12T14:58:34.487Z,19.77
2022-09-12T15:01:08.383Z,19.71
2022-09-12T15:03:46.006Z,19.66
2022-09-12T15:06:30.779Z,19.54
2022-09-12T15:09:00.772Z,19.45
2022-09-12T15:11:29.048Z,19.37
2022-09-12T15:13:56.917Z,19.26
2022-09-12T15:16:25.074Z,19.16
2022-09-12T15:18:53.056Z,19.08
2022-09-12T15:21:21.337Z,18.99
2022-09-12T15:23:50.125Z,18.86
2022-09-12T15:26:22.803Z,18.75
2022-09-12T15:28:51.015Z,18.62
2022-09-12T15:31:24.690Z,18.51
2022-09-12T15:33:53.250Z,18.38
2022-09-12T15:36:22.026Z,18.24
2022-09-12T15:38:50.643Z,18.14
2022-09-12T15:41:23.523Z,18.01
2022-09-12T15:43:51.396Z,17.88
2022-09-12T15:46:20.315Z,17.73
2022-09-12T15:48:48.358Z,17.60
2022-09-12T15:51:20.343Z,17.49
2022-09-12T15:53:49.123Z,17.36
2022-09-12T15:56:18.311Z,17.26
2022-09-12T15:58:58.374Z,17.16
2022-09-12T16:01:27.733Z,17.06
2022-09-12T16:03:56.051Z,16.95
2022-09-12T16:06:24.084Z,16.84
2022-09-12T16:08:51.907Z,16.72
2022-09-12T16:11:26.743Z,16.63
2022-09-12T16:13:55.289Z,16.55
2022-09-12T16:16:23.210Z,16.47
2022-09-12T16:18:51.229Z,16.39
2022-09-12T16:21:19.401Z,16.30
2022-09-12T16:23:47.893Z,16.21
2022-09-12T16:26:16.472Z,16.11
2022-09-12T16:28:44.852Z,15.97
2022-09-12T16:31:14.618Z,15.84
2022-09-12T16:33:42.657Z,15.75
2022-09-12T16:36:11.693Z,15.67
2022-09-12T16:38:43.587Z,15.60
2022-09-12T16:41:11.964Z,15.52
2022-09-12T16:43:40.764Z,15.46
2022-09-12T16:46:08.620Z,15.44
2022-09-12T16:48:37.942Z,15.40
2022-09-12T16:51:07.530Z,15.34
2022-09-12T16:53:37.156Z,15.30
2022-09-12T16:56:06.031Z,15.25
2022-09-12T16:58:38.489Z,15.21
2022-09-12T17:01:10.469Z,15.17
2022-09-12T17:03:38.642Z,15.14
2022-09-12T17:06:08.594Z,15.08
2022-09-12T17:08:38.178Z,15.01
2022-09-12T17:11:07.581Z,14.94
2022-09-12T17:13:53.308Z,14.85
2022-09-12T17:16:23.958Z,14.77
2022-09-12T17:18:52.767Z,14.72
2022-09-12T17:21:21.193Z,14.68
2022-09-12T17:23:49.376Z,14.67
2022-09-12T17:26:17.225Z,14.65
2022-09-12T17:28:45.189Z,14.64
2022-09-12T17:31:14.579Z,14.62
2022-09-12T17:33:43.091Z,14.60
2022-09-12T17:36:15.149Z,14.56
2022-09-12T17:38:44.036Z,14.52
2022-09-12T17:41:17.934Z,14.48
2022-09-12T17:43:56.670Z,14.45
2022-09-12T17:46:26.011Z,14.42
2022-09-12T17:48:54.951Z,14.39
2022-09-12T17:51:25.088Z,14.36
2022-09-12T17:54:04.522Z,14.33
2022-09-12T17:56:33.502Z,14.31
2022-09-12T17:59:01.995Z,14.30
2022-09-12T18:01:48.662Z,14.28
2022-09-12T18:04:17.482Z,14.28
2022-09-12T18:06:48.212Z,14.28
2022-09-12T18:09:18.132Z,14.28
2022-09-12T18:11:46.412Z,14.28
2022-09-12T18:14:14.793Z,14.24
2022-09-12T18:16:43.439Z,14.20
2022-09-12T18:19:12.366Z,14.19
2022-09-12T18:21:40.437Z,14.18
2022-09-12T18:24:09.236Z,14.18
2022-09-12T18:26:37.042Z,14.18
2022-09-12T18:29:04.918Z,14.17
2022-09-12T18:31:34.084Z,14.15
2022-09-12T18:34:02.815Z,14.16
2022-09-12T18:36:31.123Z,14.15
2022-09-12T18:38:59.715Z,14.15
2022-09-12T18:41:29.097Z,14.17
2022-09-12T18:43:58.002Z,14.19
2022-09-12T18:46:27.188Z,14.20
2022-09-12T18:48:57.754Z,14.21
2022-09-12T18:51:31.409Z,14.22
2022-09-12T18:54:00.733Z,14.23
2022-09-12T18:56:32.911Z,14.24
2022-09-12T18:59:01.695Z,14.24
2022-09-12T19:01:30.925Z,14.24
2022-09-12T19:04:00.917Z,14.24
2022-09-12T19:06:30.127Z,14.24
2022-09-12T19:09:00.162Z,14.23
2022-09-12T19:11:30.001Z,14.23
2022-09-12T19:13:57.807Z,14.23
2022-09-12T19:16:26.987Z,14.23
2022-09-12T19:18:55.408Z,14.20
2022-09-12T19:21:25.206Z,14.19
2022-09-12T19:23:56.104Z,14.19
2022-09-12T19:26:24.204Z,14.17
2022-09-12T19:28:53.404Z,14.15
2022-09-12T19:31:23.285Z,14.13
2022-09-12T19:33:52.528Z,14.09
2022-09-12T19:36:43.712Z,14.07
2022-09-12T19:39:09.487Z,14.04
2022-09-12T19:41:37.422Z,14.01
2022-09-12T19:44:05.638Z,13.97
2022-09-12T19:46:33.753Z,13.93
2022-09-12T19:49:01.841Z,13.88
2022-09-12T19:51:29.730Z,13.82
2022-09-12T19:53:57.544Z,13.78
2022-09-12T19:56:25.338Z,13.70
2022-09-12T19:58:56.317Z,13.67
2022-09-12T20:01:29.747Z,13.64
2022-09-12T20:03:58.376Z,13.63
2022-09-12T20:06:27.389Z,13.60
2022-09-12T20:08:55.760Z,13.59
2022-09-12T20:11:24.095Z,13.58
2022-09-12T20:13:52.527Z,13.56
2022-09-12T20:16:22.878Z,13.57
2022-09-12T20:18:58.846Z,13.55
2022-09-12T20:21:31.654Z,13.53
2022-09-12T20:24:03.219Z,13.52
2022-09-12T20:26:31.756Z,13.50
2022-09-12T20:28:59.970Z,13.48
2022-09-12T20:31:28.476Z,13.45
2022-09-12T20:33:56.427Z,13.43
2022-09-12T20:36:25.157Z,13.39
2022-09-12T20:38:56.943Z,13.37
2022-09-12T20:41:26.169Z,13.35
2022-09-12T20:43:55.089Z,13.32
2022-09-12T20:46:23.563Z,13.30
2022-09-12T20:48:52.022Z,13.30
2022-09-12T20:51:20.456Z,13.27
2022-09-12T20:53:48.659Z,13.24
2022-09-12T20:56:16.614Z,13.19
2022-09-12T20:58:44.914Z,13.16
2022-09-12T21:01:14.229Z,13.14
2022-09-12T21:03:43.091Z,13.11
2022-09-12T21:06:12.732Z,13.11
2022-09-12T21:08:40.647Z,13.10
2022-09-12T21:11:09.147Z,13.09
2022-09-12T21:13:37.598Z,13.08
2022-09-12T21:16:07.403Z,13.06
2022-09-12T21:18:36.057Z,13.05
2022-09-12T21:21:05.365Z,13.05
2022-09-12T21:23:33.780Z,13.03
2022-09-12T21:26:02.589Z,13.02
2022-09-12T21:28:31.109Z,13.00
2022-09-12T21:30:59.112Z,12.99
2022-09-12T21:33:27.865Z,12.99
2022-09-12T21:35:56.248Z,12.97
2022-09-12T21:38:24.070Z,12.95
2022-09-12T21:40:51.913Z,12.95
2022-09-12T21:43:19.847Z,12.94
2022-09-12T21:45:48.585Z,12.92
2022-09-12T21:48:16.479Z,12.92
2022-09-12T21:50:49.493Z,12.92
2022-09-12T21:53:17.461Z,12.91
2022-09-12T21:55:45.425Z,12.91
2022-09-12T21:58:13.400Z,12.91
2022-09-12T22:00:41.923Z,12.89
2022-09-12T22:03:10.568Z,12.88
2022-09-12T22:05:40.430Z,12.86
2022-09-12T22:08:08.350Z,12.87
2022-09-12T22:10:37.331Z,12.86
2022-09-12T22:13:05.754Z,12.86
2022-09-12T22:15:40.471Z,12.86
2022-09-12T22:18:09.089Z,12.86
2022-09-12T22:20:36.903Z,12.86
2022-09-12T22:23:25.060Z,12.85
2022-09-12T22:25:54.563Z,12.84
2022-09-12T22:28:22.830Z,12.83
2022-09-12T22:30:50.842Z,12.83
2022-09-12T22:33:18.768Z,12.81
2022-09-12T22:35:46.817Z,12.81
2022-09-12T22:38:14.707Z,12.79
2022-09-12T22:40:43.086Z,12.78
2022-09-12T22:43:11.670Z,12.78
2022-09-12T22:45:42.506Z,12.77
2022-09-12T22:48:10.466Z,12.77
2022-09-12T22:50:38.529Z,12.76
2022-09-12T22:53:06.621Z,12.75
2022-09-12T22:55:34.593Z,12.74
2022-09-12T22:58:03.994Z,12.73
2022-09-12T23:00:32.075Z,12.71
2022-09-12T23:03:00.107Z,12.70
2022-09-12T23:05:28.620Z,12.68
2022-09-12T23:07:56.485Z,12.69
2022-09-12T23:10:26.197Z,12.68
2022-09-12T23:12:55.557Z,12.68
2022-09-12T23:15:23.433Z,12.67
2022-09-12T23:17:51.651Z,12.65
2022-09-12T23:20:19.713Z,12.63
2022-09-12T23:22:47.622Z,12.61
2022-09-12T23:25:16.063Z,12.60
2022-09-12T23:27:44.236Z,12.56
2022-09-12T23:30:12.304Z,12.55
2022-09-12T23:32:40.065Z,12.52
2022-09-12T23:35:08.149Z,12.50
2022-09-12T23:37:36.218Z,12.50
2022-09-12T23:40:04.420Z,12.49
2022-09-12T23:42:32.363Z,12.48
2022-09-12T23:45:00.535Z,12.48
2022-09-12T23:47:28.454Z,12.47
2022-09-12T23:49:56.376Z,12.46
2022-09-12T23:52:24.244Z,12.45
2022-09-12T23:54:52.053Z,12.41
2022-09-12T23:57:20.282Z,12.38
2022-09-12T23:59:48.263Z,12.34
